Terminal Aerodrome Forecast
Issued by NWS Detroit/Pontiac, MI

Home | Current Version | Previous Version | Text Only | Print | Product List | Glossary On
Versions: 1 2 3 4 5 6 7 8 9 10 11 12 13 14 15 16 17 18 19 20 21
000
FTUS43 KDTX 040522
TAFFNT
TAF
KFNT 040522Z 0406/0506 25004KT P6SM BKN080
     FM041600 28013G21KT P6SM BKN060
     FM050000 30009KT P6SM BKN060
     FM050300 31005KT P6SM SCT060=

USA.gov is the U.S. government's official web portal to all federal, state and local government web resources and services.